createdAt,value
2022-08-23T00:01:25.063Z,2.35
2022-08-23T00:03:55.630Z,2.20
2022-08-23T00:06:24.997Z,2.28
2022-08-23T00:08:54.166Z,2.30
2022-08-23T00:11:28.074Z,2.20
2022-08-23T00:13:56.719Z,2.28
2022-08-23T00:16:26.390Z,2.40
2022-08-23T00:18:54.844Z,2.30
2022-08-23T00:21:23.739Z,2.33
2022-08-23T00:23:52.108Z,2.33
2022-08-23T00:26:20.791Z,2.80
2022-08-23T00:28:49.378Z,2.13
2022-08-23T00:31:17.939Z,2.17
2022-08-23T00:33:47.448Z,2.78
2022-08-23T00:36:16.129Z,2.10
2022-08-23T00:38:44.555Z,2.03
2022-08-23T00:41:12.995Z,2.40
2022-08-23T00:44:00.920Z,2.50
2022-08-23T00:47:04.324Z,2.25
2022-08-23T00:49:36.158Z,2.30
2022-08-23T00:52:09.994Z,2.33
2022-08-23T00:54:41.254Z,2.40
2022-08-23T00:57:15.509Z,2.40
2022-08-23T00:59:43.923Z,2.40
2022-08-23T01:02:12.724Z,2.58
2022-08-23T01:04:47.309Z,2.70
2022-08-23T01:07:22.392Z,2.37
2022-08-23T01:09:52.528Z,2.88
2022-08-23T01:12:32.968Z,2.53
2022-08-23T01:15:06.671Z,2.25
2022-08-23T01:17:39.928Z,2.75
2022-08-23T01:20:13.822Z,2.87
2022-08-23T01:22:47.637Z,2.58
2022-08-23T01:25:21.485Z,2.67
2022-08-23T01:27:51.175Z,2.20
2022-08-23T01:30:21.877Z,2.30
2022-08-23T01:32:53.328Z,2.30
2022-08-23T01:35:28.142Z,2.40
2022-08-23T01:37:56.654Z,2.63
2022-08-23T01:40:27.482Z,2.50
2022-08-23T01:42:56.227Z,2.70
2022-08-23T01:45:24.543Z,2.07
2022-08-23T01:47:53.408Z,2.05
2022-08-23T01:50:22.425Z,2.78
2022-08-23T01:52:50.963Z,2.53
2022-08-23T01:55:21.958Z,3.55
2022-08-23T01:57:56.885Z,2.73
2022-08-23T02:00:29.003Z,2.63
2022-08-23T02:02:57.773Z,2.90
2022-08-23T02:05:26.682Z,2.60
2022-08-23T02:07:55.535Z,2.75
2022-08-23T02:10:24.129Z,2.97
2022-08-23T02:12:53.914Z,3.08
2022-08-23T02:15:24.681Z,3.00
2022-08-23T02:17:55.901Z,2.97
2022-08-23T02:20:24.602Z,2.65
2022-08-23T02:22:53.065Z,3.03
2022-08-23T02:25:21.321Z,2.78
2022-08-23T02:27:49.752Z,2.88
2022-08-23T02:30:19.620Z,3.00
2022-08-23T02:32:48.278Z,2.70
2022-08-23T02:35:17.027Z,3.00
2022-08-23T02:37:45.572Z,3.00
2022-08-23T02:40:14.216Z,2.80
2022-08-23T02:42:43.028Z,2.70
2022-08-23T02:45:13.230Z,2.78
2022-08-23T02:47:48.275Z,2.67
2022-08-23T02:50:27.767Z,2.97
2022-08-23T02:52:58.500Z,2.75
2022-08-23T02:55:27.848Z,2.70
2022-08-23T02:57:56.430Z,2.55
2022-08-23T03:00:25.411Z,2.50
2022-08-23T03:02:55.099Z,2.60
2022-08-23T03:05:23.707Z,2.92
2022-08-23T03:07:52.292Z,2.85
2022-08-23T03:10:20.915Z,2.88
2022-08-23T03:12:55.577Z,3.17
2022-08-23T03:15:24.391Z,3.22
2022-08-23T03:17:52.975Z,3.40
2022-08-23T03:20:22.797Z,3.22
2022-08-23T03:22:54.584Z,3.40
2022-08-23T03:25:24.858Z,3.10
2022-08-23T03:28:13.620Z,2.80
2022-08-23T03:30:46.083Z,3.20
2022-08-23T03:33:15.092Z,3.50
2022-08-23T03:35:46.153Z,3.03
2022-08-23T03:38:15.351Z,2.80
2022-08-23T03:40:45.775Z,2.95
2022-08-23T03:43:14.797Z,2.75
2022-08-23T03:45:43.249Z,2.72
2022-08-23T03:48:12.338Z,2.50
2022-08-23T03:50:40.764Z,2.27
2022-08-23T03:53:12.190Z,2.90
2022-08-23T03:55:43.071Z,3.00
2022-08-23T03:58:15.633Z,2.92
2022-08-23T04:00:44.029Z,3.58
2022-08-23T04:03:12.621Z,3.07
2022-08-23T04:05:56.669Z,3.15
2022-08-23T04:08:33.561Z,2.97
2022-08-23T04:11:03.245Z,3.22
2022-08-23T04:13:31.867Z,3.03
2022-08-23T04:16:05.003Z,2.87
2022-08-23T04:18:34.715Z,2.92
2022-08-23T04:21:06.189Z,2.90
2022-08-23T04:23:35.996Z,2.70
2022-08-23T04:26:05.805Z,2.70
2022-08-23T04:28:38.310Z,2.80
2022-08-23T04:31:07.100Z,2.78
2022-08-23T04:33:40.493Z,3.20
2022-08-23T04:36:11.252Z,2.67
2022-08-23T04:38:40.912Z,3.00
2022-08-23T04:41:29.365Z,2.77
2022-08-23T04:43:59.018Z,3.00
2022-08-23T04:46:29.217Z,3.10
2022-08-23T04:49:00.823Z,3.20
2022-08-23T04:51:29.410Z,2.80
2022-08-23T04:53:59.376Z,3.00
2022-08-23T04:56:57.300Z,2.80
2022-08-23T04:59:25.807Z,2.88
2022-08-23T05:01:54.491Z,2.85
2022-08-23T05:04:22.982Z,2.88
2022-08-23T05:06:52.254Z,3.23
2022-08-23T05:09:25.130Z,3.17
2022-08-23T05:11:53.821Z,3.47
2022-08-23T05:14:23.458Z,3.58
2022-08-23T05:16:52.322Z,3.55
2022-08-23T05:19:21.518Z,3.47
2022-08-23T05:21:53.898Z,3.72
2022-08-23T05:24:28.565Z,3.78
2022-08-23T05:26:57.301Z,4.03
2022-08-23T05:29:25.966Z,4.30
2022-08-23T05:31:57.243Z,3.63
2022-08-23T05:34:27.336Z,3.70
2022-08-23T05:36:58.543Z,4.00
2022-08-23T05:39:36.928Z,3.85
2022-08-23T05:42:08.685Z,4.00
2022-08-23T05:44:37.912Z,3.80
2022-08-23T05:47:11.159Z,4.35
2022-08-23T05:49:46.141Z,4.05
2022-08-23T05:52:15.402Z,3.92
2022-08-23T05:54:46.613Z,4.10
2022-08-23T05:57:35.630Z,4.40
2022-08-23T06:00:05.735Z,4.13
2022-08-23T06:02:35.198Z,4.22
2022-08-23T06:05:03.597Z,4.18
2022-08-23T06:07:32.228Z,4.22
2022-08-23T06:10:03.142Z,4.50
2022-08-23T06:12:32.981Z,4.47
2022-08-23T06:15:03.694Z,4.35
2022-08-23T06:17:31.989Z,4.30
2022-08-23T06:20:01.347Z,4.40
2022-08-23T06:22:38.378Z,4.63
2022-08-23T06:25:09.780Z,4.93
2022-08-23T06:28:07.656Z,4.43
2022-08-23T06:30:40.121Z,4.70
2022-08-23T06:33:31.807Z,5.20
2022-08-23T06:36:26.066Z,4.40
2022-08-23T06:39:15.624Z,4.50
2022-08-23T06:42:40.004Z,4.40
2022-08-23T06:45:10.632Z,4.20
2022-08-23T06:47:41.749Z,4.65
2022-08-23T06:50:11.391Z,4.00
2022-08-23T06:53:00.146Z,4.30
2022-08-23T06:55:49.847Z,4.22
2022-08-23T06:58:39.669Z,4.40
2022-08-23T07:01:44.098Z,4.57
2022-08-23T07:04:21.221Z,4.17
2022-08-23T07:07:11.788Z,4.05
2022-08-23T07:09:41.149Z,4.25
2022-08-23T07:12:11.057Z,4.10
2022-08-23T07:14:44.279Z,4.00
2022-08-23T07:17:14.457Z,3.97
2022-08-23T07:19:44.101Z,3.95
2022-08-23T07:22:12.950Z,4.35
2022-08-23T07:24:44.043Z,3.92
2022-08-23T07:27:12.738Z,3.80
2022-08-23T07:30:45.162Z,4.00
2022-08-23T07:33:14.856Z,3.60
2022-08-23T07:36:06.914Z,3.80
2022-08-23T07:38:35.804Z,4.32
2022-08-23T07:41:04.621Z,4.30
2022-08-23T07:43:34.303Z,3.90
2022-08-23T07:46:04.848Z,3.70
2022-08-23T07:48:52.959Z,3.80
2022-08-23T07:51:24.811Z,3.88
2022-08-23T07:53:53.729Z,4.38
2022-08-23T07:56:25.106Z,3.43
2022-08-23T07:59:01.614Z,4.22
2022-08-23T08:01:54.145Z,4.03
2022-08-23T08:04:24.496Z,3.20
2022-08-23T08:07:16.843Z,3.20
2022-08-23T08:09:45.441Z,3.00
2022-08-23T08:12:15.294Z,6.40
2022-08-23T08:14:44.608Z,4.35
2022-08-23T08:17:18.245Z,3.08
2022-08-23T08:20:06.686Z,3.70
2022-08-23T08:22:56.410Z,2.93
2022-08-23T08:25:47.115Z,3.17
2022-08-23T08:28:18.464Z,3.45
2022-08-23T08:30:46.871Z,3.38
2022-08-23T08:33:17.817Z,5.85
2022-08-23T08:35:57.590Z,6.50
2022-08-23T08:38:30.540Z,12.02
2022-08-23T08:41:07.000Z,5.00
2022-08-23T08:44:00.371Z,2.90
2022-08-23T08:46:39.924Z,3.35
2022-08-23T08:49:15.834Z,2.80
2022-08-23T08:51:50.381Z,2.90
2022-08-23T08:54:23.823Z,3.25
2022-08-23T08:56:55.272Z,2.60
2022-08-23T08:59:31.788Z,2.90
2022-08-23T09:02:00.568Z,2.70
2022-08-23T09:04:37.377Z,2.70
2022-08-23T09:07:13.590Z,3.22
2022-08-23T09:09:58.807Z,2.70
2022-08-23T09:12:34.856Z,2.72
2022-08-23T09:15:23.974Z,2.70
2022-08-23T09:17:57.950Z,2.20
2022-08-23T09:20:33.162Z,2.00
2022-08-23T09:23:10.157Z,2.25
2022-08-23T09:25:40.580Z,2.13
2022-08-23T09:28:16.920Z,2.47
2022-08-23T09:30:49.589Z,2.38
2022-08-23T09:33:20.467Z,1.90
2022-08-23T09:36:14.977Z,2.10
2022-08-23T09:38:53.845Z,2.35
2022-08-23T09:41:27.741Z,2.03
2022-08-23T09:44:01.808Z,2.03
2022-08-23T09:46:34.197Z,2.42
2022-08-23T09:49:24.304Z,2.17
2022-08-23T09:51:57.791Z,2.25
2022-08-23T09:54:31.189Z,2.20
2022-08-23T09:57:03.243Z,2.30
2022-08-23T09:59:39.573Z,2.30
2022-08-23T10:02:24.154Z,2.00
2022-08-23T10:05:00.665Z,2.25
2022-08-23T10:07:38.450Z,2.10
2022-08-23T10:10:19.526Z,2.20
2022-08-23T10:12:49.426Z,2.10
2022-08-23T10:15:18.664Z,1.70
2022-08-23T10:17:55.279Z,1.80
2022-08-23T10:20:34.969Z,1.80
2022-08-23T10:23:18.004Z,1.92
2022-08-23T10:25:56.092Z,1.70
2022-08-23T10:28:53.607Z,1.70
2022-08-23T10:31:34.351Z,1.88
2022-08-23T10:34:15.865Z,1.90
2022-08-23T10:36:56.463Z,1.70
2022-08-23T10:39:28.962Z,1.60
2022-08-23T10:42:07.732Z,2.50
2022-08-23T10:44:43.243Z,1.80
2022-08-23T10:47:22.050Z,1.60
2022-08-23T10:49:53.695Z,1.45
2022-08-23T10:52:30.502Z,1.83
2022-08-23T10:55:06.462Z,1.80
2022-08-23T10:57:41.153Z,1.83
2022-08-23T11:00:13.723Z,1.97
2022-08-23T11:02:49.700Z,1.90
2022-08-23T11:05:31.704Z,1.98
2022-08-23T11:08:06.043Z,2.20
2022-08-23T11:10:56.375Z,1.88
2022-08-23T11:13:35.025Z,2.10
2022-08-23T11:16:11.395Z,2.20
2022-08-23T11:18:44.258Z,2.08
2022-08-23T11:21:44.693Z,2.00
2022-08-23T11:24:34.288Z,2.03
2022-08-23T11:27:07.943Z,2.00
2022-08-23T11:29:44.293Z,2.03
2022-08-23T11:32:44.211Z,1.77
2022-08-23T11:35:36.904Z,1.85
2022-08-23T11:38:12.668Z,1.83
2022-08-23T11:41:22.521Z,1.90
2022-08-23T11:44:22.919Z,2.20
2022-08-23T11:47:03.537Z,1.85
2022-08-23T11:50:02.667Z,2.13
2022-08-23T11:52:53.319Z,1.95
2022-08-23T11:55:31.035Z,1.93
2022-08-23T11:58:17.696Z,2.03
2022-08-23T12:01:07.611Z,1.98
2022-08-23T12:03:44.627Z,1.90
2022-08-23T12:06:40.458Z,2.00
2022-08-23T12:09:14.697Z,2.27
2022-08-23T12:12:12.794Z,2.00
2022-08-23T12:14:54.796Z,2.17
2022-08-23T12:18:12.329Z,2.03
2022-08-23T12:20:48.363Z,2.00
2022-08-23T12:23:22.223Z,1.90
2022-08-23T12:26:01.764Z,2.08
2022-08-23T12:28:49.845Z,1.90
2022-08-23T12:31:26.247Z,1.95
2022-08-23T12:34:11.336Z,2.10
2022-08-23T12:36:50.172Z,1.90
2022-08-23T12:39:26.492Z,2.03
2022-08-23T12:41:59.049Z,1.70
2022-08-23T12:44:28.881Z,1.90
2022-08-23T12:46:58.538Z,2.00
2022-08-23T12:49:30.363Z,1.77
2022-08-23T12:52:03.850Z,1.70
2022-08-23T12:54:38.692Z,1.80
2022-08-23T12:57:11.909Z,1.80
2022-08-23T12:59:50.355Z,2.00
2022-08-23T13:02:25.438Z,1.83
2022-08-23T13:04:58.016Z,1.80
2022-08-23T13:07:27.907Z,1.75
2022-08-23T13:09:56.792Z,1.70
2022-08-23T13:12:25.102Z,2.22
2022-08-23T13:14:55.699Z,1.80
2022-08-23T13:17:32.943Z,1.60
2022-08-23T13:20:21.883Z,2.10
2022-08-23T13:23:00.524Z,1.90
2022-08-23T13:25:32.743Z,1.98
2022-08-23T13:28:03.398Z,1.93
2022-08-23T13:30:33.660Z,1.98
2022-08-23T13:33:22.381Z,1.98
2022-08-23T13:35:51.511Z,1.90
2022-08-23T13:38:24.627Z,1.95
2022-08-23T13:41:00.119Z,1.60
2022-08-23T13:43:33.758Z,2.17
2022-08-23T13:46:13.100Z,2.05
2022-08-23T13:48:49.803Z,2.10
2022-08-23T13:51:26.173Z,2.13
2022-08-23T13:53:57.238Z,1.90
2022-08-23T13:56:26.320Z,1.75
2022-08-23T13:58:57.416Z,1.77
2022-08-23T14:01:26.276Z,1.83
2022-08-23T14:03:54.709Z,2.08
2022-08-23T14:06:23.907Z,1.90
2022-08-23T14:08:52.158Z,1.80
2022-08-23T14:11:21.895Z,1.80
2022-08-23T14:13:51.093Z,2.10
2022-08-23T14:16:33.497Z,1.80
2022-08-23T14:19:54.739Z,1.60
2022-08-23T14:21:51.036Z,2.17
2022-08-23T14:24:21.545Z,1.90
2022-08-23T14:26:52.436Z,1.88
2022-08-23T14:29:21.479Z,2.17
2022-08-23T14:31:51.440Z,1.90
2022-08-23T14:34:19.867Z,1.90
2022-08-23T14:39:36.261Z,2.05
2022-08-23T14:42:06.689Z,1.98
2022-08-23T14:44:36.241Z,1.87
2022-08-23T14:47:05.671Z,2.00
2022-08-23T14:49:34.176Z,1.77
2022-08-23T14:52:02.904Z,1.88
2022-08-23T14:54:31.447Z,2.00
2022-08-23T14:56:59.714Z,2.30
2022-08-23T14:59:29.263Z,1.73
2022-08-23T15:01:58.484Z,1.85
2022-08-23T15:04:32.387Z,2.00
2022-08-23T15:07:19.445Z,1.83
2022-08-23T15:09:49.114Z,2.03
2022-08-23T15:15:12.227Z,1.98
2022-08-23T15:17:47.838Z,1.95
2022-08-23T15:20:16.682Z,2.22
2022-08-23T15:22:45.259Z,1.77
2022-08-23T15:25:25.327Z,2.10
2022-08-23T15:27:54.041Z,1.95
2022-08-23T15:30:24.363Z,1.80
2022-08-23T15:32:56.579Z,2.25
2022-08-23T15:35:25.762Z,2.00
2022-08-23T15:37:54.740Z,1.98
2022-08-23T15:40:23.399Z,2.05
2022-08-23T15:42:51.901Z,2.45
2022-08-23T15:45:20.164Z,2.08
2022-08-23T15:47:52.698Z,2.10
2022-08-23T15:50:22.798Z,2.40
2022-08-23T15:52:51.045Z,2.03
2022-08-23T15:55:20.496Z,2.10
2022-08-23T15:57:51.327Z,2.40
2022-08-23T16:00:23.345Z,2.03
2022-08-23T16:03:19.006Z,2.20
2022-08-23T16:05:43.442Z,2.00
2022-08-23T16:08:17.513Z,2.17
2022-08-23T16:10:45.730Z,2.10
2022-08-23T16:13:14.024Z,2.07
2022-08-23T16:15:42.073Z,2.10
2022-08-23T16:18:11.720Z,2.30
2022-08-23T16:20:39.841Z,2.30
2022-08-23T16:23:08.578Z,1.83
2022-08-23T16:25:37.055Z,2.07
2022-08-23T16:28:07.311Z,1.98
2022-08-23T16:30:36.167Z,2.08
2022-08-23T16:33:04.506Z,1.77
2022-08-23T16:35:33.947Z,2.10
2022-08-23T16:38:02.269Z,2.00
2022-08-23T16:40:30.491Z,1.98
2022-08-23T16:42:59.073Z,2.40
2022-08-23T16:45:27.448Z,2.20
2022-08-23T16:47:55.725Z,2.30
2022-08-23T16:50:24.250Z,2.20
2022-08-23T16:52:53.740Z,1.80
2022-08-23T16:55:22.511Z,1.90
2022-08-23T16:57:51.219Z,1.90
2022-08-23T17:00:19.699Z,1.80
2022-08-23T17:02:47.888Z,1.97
2022-08-23T17:05:18.954Z,1.65
2022-08-23T17:07:47.829Z,1.90
2022-08-23T17:10:19.054Z,1.98
2022-08-23T17:12:49.697Z,1.92
2022-08-23T17:15:20.745Z,1.90
2022-08-23T17:17:49.165Z,1.70
2022-08-23T17:20:17.825Z,2.03
2022-08-23T17:22:56.406Z,1.80
2022-08-23T17:25:26.245Z,1.83
2022-08-23T17:27:56.163Z,2.03
2022-08-23T17:30:26.311Z,2.05
2022-08-23T17:32:55.053Z,2.30
2022-08-23T17:35:26.006Z,2.20
2022-08-23T17:37:55.042Z,1.90
2022-08-23T17:40:28.976Z,1.60
2022-08-23T17:43:00.251Z,2.00
2022-08-23T17:45:28.819Z,1.50
2022-08-23T17:47:57.407Z,1.70
2022-08-23T17:50:26.048Z,2.00
2022-08-23T17:52:55.022Z,1.80
2022-08-23T17:55:23.518Z,1.70
2022-08-23T17:57:56.360Z,1.83
2022-08-23T18:00:32.329Z,2.00
2022-08-23T18:03:01.109Z,2.00
2022-08-23T18:05:33.206Z,2.00
2022-08-23T18:08:01.885Z,2.30
2022-08-23T18:10:30.998Z,1.98
2022-08-23T18:13:00.699Z,2.00
2022-08-23T18:15:30.180Z,2.20
2022-08-23T18:18:00.766Z,2.23
2022-08-23T18:20:30.117Z,2.35
2022-08-23T18:23:00.284Z,2.05
2022-08-23T18:25:28.956Z,2.10
2022-08-23T18:28:09.793Z,2.10
2022-08-23T18:30:46.950Z,2.20
2022-08-23T18:33:16.454Z,2.50
2022-08-23T18:35:47.534Z,2.53
2022-08-23T18:38:16.008Z,2.35
2022-08-23T18:40:46.408Z,2.25
2022-08-23T18:43:16.932Z,2.60
2022-08-23T18:45:48.087Z,2.50
2022-08-23T18:48:16.866Z,2.85
2022-08-23T18:50:45.441Z,2.78
2022-08-23T18:53:15.152Z,2.90
2022-08-23T18:55:43.953Z,2.90
2022-08-23T18:58:12.573Z,3.03
2022-08-23T19:00:41.808Z,3.00
2022-08-23T19:03:12.420Z,2.97
2022-08-23T19:05:42.708Z,2.95
2022-08-23T19:08:12.809Z,2.90
2022-08-23T19:10:42.508Z,2.80
2022-08-23T19:13:11.071Z,3.10
2022-08-23T19:15:40.494Z,2.92
2022-08-23T19:18:09.149Z,3.05
2022-08-23T19:20:39.255Z,2.80
2022-08-23T19:23:09.461Z,2.80
2022-08-23T19:25:38.664Z,3.00
2022-08-23T19:28:07.552Z,3.05
2022-08-23T19:30:36.522Z,3.30
2022-08-23T19:33:05.399Z,3.20
2022-08-23T19:35:34.001Z,3.28
2022-08-23T19:38:03.962Z,3.80
2022-08-23T19:40:33.922Z,3.72
2022-08-23T19:43:02.686Z,3.30
2022-08-23T19:45:32.227Z,3.40
2022-08-23T19:48:02.873Z,3.65
2022-08-23T19:50:32.645Z,3.78
2022-08-23T19:53:01.265Z,3.70
2022-08-23T19:55:34.185Z,3.85
2022-08-23T19:58:02.879Z,3.70
2022-08-23T20:00:31.981Z,3.70
2022-08-23T20:03:00.988Z,4.13
2022-08-23T20:05:30.230Z,3.70
2022-08-23T20:07:58.921Z,4.03
2022-08-23T20:10:27.633Z,4.33
2022-08-23T20:12:57.438Z,4.75
2022-08-23T20:15:26.905Z,4.45
2022-08-23T20:17:55.490Z,3.53
2022-08-23T20:20:23.937Z,4.20
2022-08-23T20:23:09.959Z,3.70
2022-08-23T20:25:38.409Z,3.80
2022-08-23T20:28:08.386Z,4.47
2022-08-23T20:30:37.562Z,3.67
2022-08-23T20:33:06.131Z,3.47
2022-08-23T20:35:34.546Z,3.90
2022-08-23T20:38:04.459Z,3.55
2022-08-23T20:40:33.103Z,4.32
2022-08-23T20:43:01.528Z,4.38
2022-08-23T20:45:32.783Z,4.55
2022-08-23T20:48:01.232Z,4.17
2022-08-23T20:50:29.730Z,4.70
2022-08-23T20:52:58.326Z,4.65
2022-08-23T20:55:26.861Z,3.72
2022-08-23T20:57:55.367Z,4.63
2022-08-23T21:00:23.944Z,4.50
2022-08-23T21:02:53.455Z,4.53
2022-08-23T21:05:24.349Z,4.15
2022-08-23T21:07:52.773Z,4.55
2022-08-23T21:10:21.385Z,4.47
2022-08-23T21:12:49.842Z,4.47
2022-08-23T21:15:18.660Z,4.30
2022-08-23T21:17:47.813Z,4.50
2022-08-23T21:20:17.774Z,4.30
2022-08-23T21:22:46.267Z,4.18
2022-08-23T21:25:15.006Z,3.93
2022-08-23T21:27:43.518Z,3.63
2022-08-23T21:30:12.500Z,4.60
2022-08-23T21:32:40.912Z,4.43
2022-08-23T21:35:10.739Z,4.50
2022-08-23T21:37:40.416Z,4.70
2022-08-23T21:40:09.817Z,4.32
2022-08-23T21:42:38.519Z,4.72
2022-08-23T21:45:08.530Z,4.40
2022-08-23T21:47:37.158Z,4.65
2022-08-23T21:50:06.097Z,4.60
2022-08-23T21:52:34.513Z,4.32
2022-08-23T21:55:04.498Z,4.45
2022-08-23T21:57:33.822Z,4.70
2022-08-23T22:00:06.879Z,4.45
2022-08-23T22:02:41.064Z,4.10
2022-08-23T22:05:09.627Z,4.30
2022-08-23T22:07:38.259Z,4.43
2022-08-23T22:10:11.051Z,4.65
2022-08-23T22:12:40.108Z,4.35
2022-08-23T22:15:09.583Z,4.73
2022-08-23T22:17:38.536Z,4.20
2022-08-23T22:20:09.456Z,4.10
2022-08-23T22:22:37.921Z,4.38
2022-08-23T22:25:08.797Z,4.72
2022-08-23T22:27:37.374Z,4.40
2022-08-23T22:30:06.339Z,4.55
2022-08-23T22:32:35.166Z,4.32
2022-08-23T22:35:03.568Z,4.50
2022-08-23T22:37:32.032Z,4.70
2022-08-23T22:40:00.535Z,4.30
2022-08-23T22:42:30.154Z,4.45
2022-08-23T22:44:58.586Z,4.63
2022-08-23T22:47:27.179Z,4.45
2022-08-23T22:49:55.753Z,4.72
2022-08-23T22:52:24.210Z,4.83
2022-08-23T22:54:52.745Z,4.50
2022-08-23T22:57:21.317Z,4.55
2022-08-23T22:59:52.197Z,4.38
2022-08-23T23:02:23.570Z,4.50
2022-08-23T23:04:55.495Z,4.60
2022-08-23T23:07:37.845Z,4.28
2022-08-23T23:10:06.867Z,4.57
2022-08-23T23:12:35.315Z,4.53
2022-08-23T23:15:05.380Z,4.60
2022-08-23T23:17:33.790Z,4.60
2022-08-23T23:20:20.152Z,5.10
2022-08-23T23:22:48.596Z,4.50
2022-08-23T23:25:17.036Z,4.65
2022-08-23T23:27:45.502Z,5.00
2022-08-23T23:30:15.503Z,5.10
2022-08-23T23:32:44.012Z,5.35
2022-08-23T23:35:13.020Z,5.30
2022-08-23T23:37:41.460Z,4.85
2022-08-23T23:40:10.794Z,5.80
2022-08-23T23:42:39.410Z,4.90
2022-08-23T23:45:08.989Z,4.57
2022-08-23T23:47:38.597Z,5.03
2022-08-23T23:50:07.525Z,4.80
2022-08-23T23:52:37.365Z,5.38
2022-08-23T23:55:06.014Z,4.93
2022-08-23T23:57:34.468Z,5.30
